DucheSS Of Scandinavia — OUZI2 — position and weather

sailwx.info

Track history (hours):
 
Tides and Currents Weather Stations Pressure Air Temp Water Temp Dewpoint Dewpoint Depression Visibility Wind Speed Wind Dir Waves Ship Positions

DucheSS Of Scandinavia

Operator: DFDS A/S

Last reported at 2019-Aug-22 09:31 UTC. Time now 2019-Aug-22 09:56 UTC.
Position N 58°56' E 011°10'.

Length 134 m; draft 5.4 m.

Type: Passenger vessel. MMSI: 219002929.

Date/timePositionNaut miles runAvg speedWind from/ knotsBaromVisibWave heightAir tempDewpointWater temp
2019-Aug-22 09:31N 58°56' E 011°10'0 0.4
2019-Aug-22 09:00N 58°56' E 011°10'612.5
2019-Aug-22 08:30N 58°59' E 010°60'815.2
2019-Aug-22 08:00N 59°02' E 010°46'815.4
2019-Aug-22 07:31N 59°00' E 010°31'714.8
2019-Aug-22 07:00N 59°02' E 010°17'612.1
2019-Aug-22 06:30N 59°07' E 010°14'0 0.4
2019-Aug-22 06:00N 59°08' E 010°14'0 0.7
2019-Aug-22 05:30N 59°07' E 010°14'1 2.1
2019-Aug-22 05:00N 59°06' E 010°14'0 0.0
2019-Aug-22 04:29N 59°06' E 010°14'0 0.0
2019-Aug-22 03:59N 59°06' E 010°14'0 0.0
2019-Aug-22 03:30N 59°06' E 010°14'0 0.0
2019-Aug-22 03:00N 59°06' E 010°14'0 0.0
2019-Aug-22 02:31N 59°06' E 010°14'0 0.0
2019-Aug-22 01:58N 59°06' E 010°14'0 0.0
2019-Aug-22 01:28N 59°06' E 010°14'0 0.0
2019-Aug-22 00:59N 59°06' E 010°14'0 0.0
2019-Aug-22 00:29N 59°06' E 010°14'0 0.0
2019-Aug-21 23:59N 59°06' E 010°14'0 0.0
2019-Aug-21 23:30N 59°06' E 010°14'0 0.0
2019-Aug-21 23:00N 59°06' E 010°14'0 0.0
2019-Aug-21 22:30N 59°06' E 010°14'0 0.0
2019-Aug-21 22:01N 59°06' E 010°14'0 0.0
2019-Aug-21 21:28N 59°06' E 010°14'0 0.0
2019-Aug-21 20:58N 59°06' E 010°14'0 0.0
2019-Aug-21 20:29N 59°06' E 010°14'0 0.0
2019-Aug-21 19:59N 59°06' E 010°14'1 2.6
2019-Aug-21 19:30N 59°07' E 010°14'0 0.5
2019-Aug-21 19:00N 59°07' E 010°14'612.5
2019-Aug-21 18:30N 59°01' E 010°18'815.4
2019-Aug-21 18:00N 59°01' E 010°33'815.2
2019-Aug-21 17:30N 59°02' E 010°47'715.0
2019-Aug-21 17:00N 58°59' E 011°01'611.2
2019-Aug-21 16:30N 58°56' E 011°10'0 0.0
2019-Aug-21 16:01N 58°56' E 011°10'5 9.0
2019-Aug-21 15:30N 58°58' E 011°02'714.7
2019-Aug-21 15:00N 59°01' E 010°50'714.8
2019-Aug-21 14:30N 59°01' E 010°35'714.9
2019-Aug-21 14:00N 59°01' E 010°21'612.5
2019-Aug-21 13:30N 59°06' E 010°14'1 2.8
2019-Aug-21 13:00N 59°08' E 010°14'0 0.2
2019-Aug-21 12:30N 59°07' E 010°14'611.2
2019-Aug-21 12:01N 59°02' E 010°16'713.7
2019-Aug-21 11:30N 59°01' E 010°29'714.0
2019-Aug-21 11:00N 59°02' E 010°42'815.1
2019-Aug-21 10:30N 59°00' E 010°57'815.4
2019-Aug-21 10:01N 58°56' E 011°09'1 1.3
2019-Aug-21 09:31N 58°56' E 011°10'0 0.5
2019-Aug-21 09:00N 58°56' E 011°10'713.2
2019-Aug-21 08:30N 58°59' E 010°59'714.6
2019-Aug-21 08:00N 59°02' E 010°45'714.9
2019-Aug-21 07:30N 59°00' E 010°31'714.8
2019-Aug-21 07:00N 59°01' E 010°17'612.6
2019-Aug-21 06:30N 59°07' E 010°14'0 0.5
2019-Aug-21 06:01N 59°08' E 010°14'0 0.4
2019-Aug-21 05:30N 59°07' E 010°14'1 2.5
2019-Aug-21 05:00N 59°06' E 010°14'0 0.0
2019-Aug-21 04:29N 59°06' E 010°14'0 0.0
2019-Aug-21 03:59N 59°06' E 010°14'0 0.0
2019-Aug-21 03:30N 59°06' E 010°14'0 0.0
2019-Aug-21 03:00N 59°06' E 010°14'0 0.0
2019-Aug-21 02:30N 59°06' E 010°14'0 0.0
2019-Aug-21 01:58N 59°06' E 010°14'0 0.0
2019-Aug-21 01:28N 59°06' E 010°14'0 0.0
2019-Aug-21 00:58N 59°06' E 010°14'0 0.0
2019-Aug-21 00:29N 59°06' E 010°14'0 0.0
2019-Aug-20 23:59N 59°06' E 010°14'0 0.0
2019-Aug-20 23:29N 59°06' E 010°14'0 0.0
2019-Aug-20 23:00N 59°06' E 010°14'0 0.0
2019-Aug-20 22:30N 59°06' E 010°14'0 0.0
2019-Aug-20 22:00N 59°06' E 010°14'0 0.0
2019-Aug-20 21:28N 59°06' E 010°14'0 0.0
2019-Aug-20 20:58N 59°06' E 010°14'0 0.0
2019-Aug-20 20:28N 59°06' E 010°14'0 0.0
2019-Aug-20 19:59N 59°06' E 010°14'1 2.1
2019-Aug-20 19:30N 59°07' E 010°14'0 0.9
2019-Aug-20 19:00N 59°08' E 010°14'510.9
2019-Aug-20 18:30N 59°02' E 010°16'815.2
2019-Aug-20 18:01N 59°01' E 010°30'815.4
2019-Aug-20 17:31N 59°01' E 010°45'815.2
2019-Aug-20 17:00N 58°60' E 010°59'713.1
2019-Aug-20 16:30N 58°56' E 011°10'0 0.3
2019-Aug-20 16:00N 58°56' E 011°10'5 8.9
2019-Aug-20 15:30N 58°58' E 011°02'714.8
2019-Aug-20 15:00N 59°01' E 010°50'714.4
2019-Aug-20 14:30N 59°01' E 010°36'714.8
2019-Aug-20 14:00N 59°01' E 010°21'612.6
2019-Aug-20 13:30N 59°06' E 010°14'2 3.1
2019-Aug-20 13:00N 59°08' E 010°14'0 0.0
2019-Aug-20 12:30N 59°08' E 010°14'510.5
2019-Aug-20 12:00N 59°02' E 010°16'713.3
2019-Aug-20 11:30N 59°01' E 010°28'714.0
2019-Aug-20 11:01N 59°02' E 010°41'715.0
2019-Aug-20 10:30N 59°00' E 010°56'815.5
2019-Aug-20 10:00N 58°56' E 011°08'1 2.2
2019-Aug-20 09:30N 58°56' E 011°10'0 0.5
2019-Aug-20 09:00N 58°56' E 011°10'713.5
2019-Aug-20 08:30N 58°60' E 010°59'815.3
2019-Aug-20 08:00N 59°02' E 010°45'815.9
2019-Aug-20 07:30N 59°00' E 010°29'714.8
2019-Aug-20 07:00N 59°02' E 010°15'510.7
2019-Aug-20 06:30N 59°08' E 010°14'0 0.1
2019-Aug-20 06:00N 59°08' E 010°14'0 0.2
2019-Aug-20 05:30N 59°07' E 010°14'1 2.5
2019-Aug-20 05:00N 59°06' E 010°14'0 0.0
2019-Aug-20 04:28N 59°06' E 010°14'0 0.0
2019-Aug-20 03:58N 59°06' E 010°14'0 0.0
2019-Aug-20 03:29N 59°06' E 010°14'0 0.0
2019-Aug-20 02:59N 59°06' E 010°14'0 0.0
2019-Aug-20 02:29N 59°06' E 010°14'0 0.0
2019-Aug-20 02:00N 59°06' E 010°14'0 0.0
2019-Aug-20 01:30N 59°06' E 010°14'0 0.0
2019-Aug-20 01:00N 59°06' E 010°14'0 0.0
2019-Aug-20 00:28N 59°06' E 010°14'0 0.0
2019-Aug-19 23:58N 59°06' E 010°14'0 0.0
2019-Aug-19 23:28N 59°06' E 010°14'0 0.0
2019-Aug-19 22:59N 59°06' E 010°14'0 0.0
2019-Aug-19 22:29N 59°06' E 010°14'0 0.0
2019-Aug-19 21:59N 59°06' E 010°14'0 0.0
2019-Aug-19 21:30N 59°06' E 010°14'0 0.0
2019-Aug-19 20:57N 59°06' E 010°14'0 0.0
2019-Aug-19 20:30N 59°06' E 010°14'0 0.0
2019-Aug-19 20:00N 59°06' E 010°14'1 2.7
2019-Aug-19 19:30N 59°08' E 010°14'1 1.7
2019-Aug-19 19:00N 59°07' E 010°14'713.1
2019-Aug-19 18:31N 59°01' E 010°19'714.0
2019-Aug-19 18:00N 59°01' E 010°33'713.4
2019-Aug-19 17:30N 59°02' E 010°45'815.5
2019-Aug-19 17:00N 58°59' E 010°60'612.6
2019-Aug-19 16:30N 58°56' E 011°10'0 0.1
2019-Aug-19 16:00N 58°56' E 011°10'4 9.1
2019-Aug-19 15:30N 58°58' E 011°02'815.5
2019-Aug-19 15:01N 59°01' E 010°49'815.6
2019-Aug-19 14:30N 59°01' E 010°34'815.4
2019-Aug-19 14:00N 59°01' E 010°19'612.5
2019-Aug-19 13:30N 59°07' E 010°14'1 1.6
2019-Aug-19 13:00N 59°08' E 010°14'0 0.7
2019-Aug-19 12:30N 59°07' E 010°14'611.8
2019-Aug-19 12:01N 59°02' E 010°17'713.9
2019-Aug-19 11:30N 59°00' E 010°30'713.7
2019-Aug-19 11:01N 59°02' E 010°43'714.7
2019-Aug-19 10:30N 59°00' E 010°57'714.7
2019-Aug-19 10:00N 58°56' E 011°08'1 1.8
2019-Aug-19 09:30N 58°56' E 011°10'0 0.1
2019-Aug-19 09:00N 58°56' E 011°10'510.7
2019-Aug-19 08:30N 58°59' E 011°01'816.0
2019-Aug-19 08:00N 59°02' E 010°47'816.1
2019-Aug-19 07:30N 59°00' E 010°32'815.5
2019-Aug-19 07:00N 59°02' E 010°17'612.1
2019-Aug-19 06:30N 59°07' E 010°14'0 0.4
2019-Aug-19 06:01N 59°08' E 010°14'0 0.9
2019-Aug-19 05:30N 59°07' E 010°14'1 1.9
2019-Aug-19 05:01N 59°06' E 010°14'0 0.0
2019-Aug-19 04:28N 59°06' E 010°14'0 0.0
2019-Aug-19 03:58N 59°06' E 010°14'0 0.0
2019-Aug-19 03:28N 59°06' E 010°14'0 0.0
2019-Aug-19 02:59N 59°06' E 010°14'0 0.0
2019-Aug-19 02:29N 59°06' E 010°14'0 0.0
2019-Aug-19 01:59N 59°06' E 010°14'0 0.0
2019-Aug-19 01:30N 59°06' E 010°14'0 0.0
2019-Aug-19 01:00N 59°06' E 010°14'0 0.0
2019-Aug-19 00:30N 59°06' E 010°14'0 0.0
2019-Aug-18 23:58N 59°06' E 010°14'0 0.0
2019-Aug-18 23:28N 59°06' E 010°14'0 0.0
2019-Aug-18 22:58N 59°06' E 010°14'0 0.0
2019-Aug-18 22:29N 59°06' E 010°14'0 0.0
2019-Aug-18 21:59N 59°06' E 010°14'0 0.0
2019-Aug-18 21:29N 59°06' E 010°14'0 0.0
2019-Aug-18 21:00N 59°06' E 010°14'0 0.0
2019-Aug-18 20:30N 59°06' E 010°14'0 0.0
2019-Aug-18 20:00N 59°06' E 010°14'1 1.8
2019-Aug-18 19:30N 59°07' E 010°14'0 1.0
2019-Aug-18 19:00N 59°08' E 010°14'611.4
2019-Aug-18 18:30N 59°02' E 010°16'816.0
2019-Aug-18 18:01N 59°01' E 010°31'815.5
2019-Aug-18 17:31N 59°02' E 010°46'815.1
2019-Aug-18 17:00N 58°59' E 011°00'612.3
2019-Aug-18 16:30N 58°56' E 011°10'0 0.1
2019-Aug-18 16:00N 58°56' E 011°10'5 9.2
2019-Aug-18 15:30N 58°58' E 011°02'714.6
2019-Aug-18 15:00N 59°01' E 010°50'815.1
2019-Aug-18 14:30N 59°01' E 010°35'714.9
2019-Aug-18 14:00N 59°01' E 010°20'612.7
2019-Aug-18 13:30N 59°06' E 010°14'1 2.5
2019-Aug-18 13:00N 59°08' E 010°14'0 0.3
2019-Aug-18 12:30N 59°07' E 010°14'611.4
2019-Aug-18 12:00N 59°02' E 010°16'714.7
2019-Aug-18 11:31N 59°01' E 010°30'714.4
2019-Aug-18 11:00N 59°02' E 010°44'714.5
2019-Aug-18 10:30N 59°00' E 010°57'714.5
2019-Aug-18 10:00N 58°56' E 011°09'1 1.4
2019-Aug-18 09:30N 58°56' E 011°10'0 0.4
2019-Aug-18 09:00N 58°56' E 011°10'713.2
2019-Aug-18 08:30N 58°59' E 010°59'715.0
2019-Aug-18 08:00N 59°02' E 010°45'1515.0
2019-Aug-18 07:00N 59°02' E 010°16'611.5
2019-Aug-18 06:30N 59°07' E 010°14'0 0.3
2019-Aug-18 06:00N 59°08' E 010°14'0 0.8
2019-Aug-18 05:30N 59°07' E 010°14'1 2.0
2019-Aug-18 05:00N 59°06' E 010°14'0 0.0
2019-Aug-18 04:29N 59°06' E 010°14'0 0.0
2019-Aug-18 04:00N 59°06' E 010°14'0 0.0
2019-Aug-18 03:30N 59°06' E 010°14'0 0.0
2019-Aug-18 03:00N 59°06' E 010°14'0 0.0
2019-Aug-18 02:28N 59°06' E 010°14'0 0.0
2019-Aug-18 01:58N 59°06' E 010°14'0 0.0
2019-Aug-18 01:28N 59°06' E 010°14'0 0.0
2019-Aug-18 00:59N 59°06' E 010°14'0 0.0
2019-Aug-18 00:29N 59°06' E 010°14'0 0.0
2019-Aug-17 23:59N 59°06' E 010°14'0 0.0
2019-Aug-17 23:30N 59°06' E 010°14'0 0.0
2019-Aug-17 23:00N 59°06' E 010°14'0 0.0
2019-Aug-17 22:30N 59°06' E 010°14'0 0.0
2019-Aug-17 21:58N 59°06' E 010°14'0 0.0
2019-Aug-17 21:28N 59°06' E 010°14'0 0.0
2019-Aug-17 20:58N 59°06' E 010°14'0 0.0
2019-Aug-17 20:29N 59°06' E 010°14'0 0.0
2019-Aug-17 19:59N 59°06' E 010°14'1 1.8
2019-Aug-17 19:30N 59°07' E 010°14'0 0.6
2019-Aug-17 19:00N 59°07' E 010°14'612.5
2019-Aug-17 18:30N 59°01' E 010°17'1413.9
2019-Aug-17 17:30N 59°01' E 010°44'815.8
2019-Aug-17 17:00N 58°60' E 010°59'713.1
2019-Aug-17 16:30N 58°56' E 011°10'0 0.3
2019-Aug-17 16:00N 58°56' E 011°10'5 9.4
2019-Aug-17 15:30N 58°58' E 011°02'815.2
2019-Aug-17 15:00N 59°02' E 010°49'714.9
2019-Aug-17 14:30N 58°59' E 010°35'815.2
2019-Aug-17 14:00N 59°00' E 010°20'713.7
2019-Aug-17 13:30N 59°06' E 010°14'1 2.6
2019-Aug-17 13:00N 59°08' E 010°14'0 0.5
2019-Aug-17 12:30N 59°07' E 010°14'612.2
2019-Aug-17 12:00N 59°01' E 010°17'714.5
2019-Aug-17 11:31N 58°59' E 010°30'612.9
2019-Aug-17 11:00N 59°01' E 010°41'815.4
2019-Aug-17 10:30N 59°01' E 010°56'816.0
2019-Aug-17 10:00N 58°56' E 011°09'1 1.7
2019-Aug-17 09:31N 58°56' E 011°10'1 1.0
2019-Aug-17 09:00N 58°56' E 011°09'713.7
2019-Aug-17 08:30N 58°60' E 010°58'714.9
2019-Aug-17 08:00N 59°02' E 010°44'816.1
2019-Aug-17 07:30N 58°59' E 010°30'715.1
2019-Aug-17 07:01N 59°02' E 010°16'611.7
2019-Aug-17 06:30N 59°07' E 010°14'0 0.3
2019-Aug-17 06:01N 59°08' E 010°14'1 1.4
2019-Aug-17 05:30N 59°07' E 010°14'1 1.4
2019-Aug-17 05:00N 59°06' E 010°14'0 0.0
2019-Aug-17 04:28N 59°06' E 010°14'0 0.0
2019-Aug-17 03:58N 59°06' E 010°14'0 0.0
2019-Aug-17 03:28N 59°06' E 010°14'0 0.0
2019-Aug-17 02:59N 59°06' E 010°14'0 0.0
2019-Aug-17 02:29N 59°06' E 010°14'0 0.0
2019-Aug-17 01:59N 59°06' E 010°14'0 0.0
2019-Aug-17 01:30N 59°06' E 010°14'0 0.0
2019-Aug-17 01:00N 59°06' E 010°14'0 0.0
2019-Aug-17 00:30N 59°06' E 010°14'0 0.0
2019-Aug-16 23:58N 59°06' E 010°14'0 0.0
2019-Aug-16 23:28N 59°06' E 010°14'0 0.0
2019-Aug-16 22:58N 59°06' E 010°14'0 0.0
2019-Aug-16 22:29N 59°06' E 010°14'0 0.0
2019-Aug-16 21:59N 59°06' E 010°14'0 0.0
2019-Aug-16 21:29N 59°06' E 010°14'0 0.0
2019-Aug-16 21:00N 59°06' E 010°14'0 0.0
2019-Aug-16 20:30N 59°06' E 010°14'0 0.0
2019-Aug-16 20:00N 59°06' E 010°14'1 2.8
2019-Aug-16 19:30N 59°08' E 010°14'1 1.4
2019-Aug-16 19:00N 59°07' E 010°14'612.7
2019-Aug-16 18:31N 59°01' E 010°19'815.6
2019-Aug-16 18:01N 59°01' E 010°35'815.7
2019-Aug-16 17:31N 59°01' E 010°50'816.1
2019-Aug-16 17:01N 58°58' E 011°03'4 7.6
2019-Aug-16 16:30N 58°56' E 011°10'0 0.0
2019-Aug-16 16:01N 58°56' E 011°10'5 9.6
2019-Aug-16 15:31N 58°58' E 011°02'815.1
2019-Aug-16 15:00N 59°01' E 010°49'715.0
2019-Aug-16 14:30N 59°01' E 010°34'815.2
2019-Aug-16 14:00N 59°01' E 010°19'612.4
2019-Aug-16 13:30N 59°07' E 010°14'1 2.0
2019-Aug-16 13:00N 59°08' E 010°14'0 0.1
2019-Aug-16 12:31N 59°08' E 010°14'611.3
2019-Aug-16 12:00N 59°02' E 010°16'714.3
2019-Aug-16 11:31N 59°01' E 010°29'714.4
2019-Aug-16 11:01N 59°02' E 010°43'714.3
2019-Aug-16 10:31N 59°00' E 010°57'714.8
2019-Aug-16 10:00N 58°56' E 011°08'1 1.7
2019-Aug-16 09:30N 58°56' E 011°10'0 0.0
2019-Aug-16 09:00N 58°56' E 011°10'611.2
2019-Aug-16 08:30N 58°59' E 011°01'815.7
2019-Aug-16 08:00N 59°02' E 010°47'816.3
2019-Aug-16 07:30N 59°00' E 010°31'815.9
2019-Aug-16 07:00N 59°02' E 010°16'611.4
2019-Aug-16 06:30N 59°08' E 010°14'0 0.1
2019-Aug-16 06:01N 59°08' E 010°14'1 1.1
2019-Aug-16 05:30N 59°07' E 010°14'1 1.7
2019-Aug-16 05:00N 59°06' E 010°14'0 0.0
2019-Aug-16 04:29N 59°06' E 010°14'0 0.0
2019-Aug-16 04:00N 59°06' E 010°14'0 0.0
2019-Aug-16 03:30N 59°06' E 010°14'0 0.0
2019-Aug-16 03:00N 59°06' E 010°14'0 0.0
2019-Aug-16 02:28N 59°06' E 010°14'0 0.0
2019-Aug-16 01:58N 59°06' E 010°14'0 0.0
2019-Aug-16 01:28N 59°06' E 010°14'0 0.0
2019-Aug-16 00:59N 59°06' E 010°14'0 0.0
2019-Aug-16 00:29N 59°06' E 010°14'0 0.0
2019-Aug-15 23:59N 59°06' E 010°14'0 0.0
2019-Aug-15 23:30N 59°06' E 010°14'0 0.0
2019-Aug-15 23:00N 59°06' E 010°14'0 0.0
2019-Aug-15 22:30N 59°06' E 010°14'0 0.0
2019-Aug-15 21:58N 59°06' E 010°14'0 0.0
2019-Aug-15 21:28N 59°06' E 010°14'0 0.0
2019-Aug-15 20:58N 59°06' E 010°14'0 0.0
2019-Aug-15 20:29N 59°06' E 010°14'0 0.0
2019-Aug-15 19:59N 59°06' E 010°14'0 0.3
2019-Aug-15 19:30N 59°06' E 010°14'1 2.6
2019-Aug-15 19:00N 59°08' E 010°14'4 8.7
2019-Aug-15 18:30N 59°03' E 010°15'714.8
2019-Aug-15 18:00N 59°01' E 010°28'816.2
2019-Aug-15 17:30N 59°01' E 010°44'816.1
2019-Aug-15 17:00N 58°59' E 010°59'613.1
2019-Aug-15 16:31N 58°56' E 011°10'0 0.2
2019-Aug-15 16:00N 58°56' E 011°10'5 9.5
2019-Aug-15 15:30N 58°58' E 011°02'714.4
2019-Aug-15 15:00N 59°01' E 010°50'714.7
2019-Aug-15 14:30N 59°01' E 010°35'714.8
2019-Aug-15 14:00N 59°01' E 010°21'612.1
2019-Aug-15 13:30N 59°06' E 010°14'2 3.3
2019-Aug-15 13:00N 59°08' E 010°14'0 0.1
2019-Aug-15 12:30N 59°08' E 010°14'611.2
2019-Aug-15 12:00N 59°02' E 010°16'714.4
2019-Aug-15 11:31N 59°01' E 010°29'714.5
2019-Aug-15 11:00N 59°02' E 010°43'714.3
2019-Aug-15 10:30N 59°00' E 010°57'714.6
2019-Aug-15 10:00N 58°56' E 011°08'1 1.9
2019-Aug-15 09:30N 58°56' E 011°10'0 0.6
2019-Aug-15 09:00N 58°56' E 011°10'713.0
2019-Aug-15 08:30N 58°60' E 010°59'714.6
2019-Aug-15 08:01N 59°02' E 010°46'714.9
2019-Aug-15 07:30N 59°01' E 010°31'714.7
2019-Aug-15 07:00N 59°01' E 010°17'612.2
2019-Aug-15 06:30N 59°07' E 010°14'0 0.5
2019-Aug-15 06:00N 59°08' E 010°14'0 0.8
2019-Aug-15 05:30N 59°07' E 010°14'1 2.1
2019-Aug-15 05:00N 59°06' E 010°14'0 0.0
2019-Aug-15 04:29N 59°06' E 010°14'0 0.0
2019-Aug-15 04:00N 59°06' E 010°14'0 0.0
2019-Aug-15 03:30N 59°06' E 010°14'0 0.0
2019-Aug-15 03:00N 59°06' E 010°14'0 0.0
2019-Aug-15 02:28N 59°06' E 010°14'0 0.0
2019-Aug-15 01:58N 59°06' E 010°14'0 0.0
2019-Aug-15 01:28N 59°06' E 010°14'0 0.0
2019-Aug-15 00:59N 59°06' E 010°14'0 0.0
2019-Aug-15 00:29N 59°06' E 010°14'0 0.0
2019-Aug-14 23:59N 59°06' E 010°14'0 0.0
2019-Aug-14 23:30N 59°06' E 010°14'0 0.0
2019-Aug-14 23:00N 59°06' E 010°14'0 0.0
2019-Aug-14 22:30N 59°06' E 010°14'0 0.0
2019-Aug-14 21:58N 59°06' E 010°14'0 0.0
2019-Aug-14 21:28N 59°06' E 010°14'0 0.0
2019-Aug-14 20:58N 59°06' E 010°14'0 0.0
2019-Aug-14 20:29N 59°06' E 010°14'0 0.0
2019-Aug-14 19:59N 59°06' E 010°14'1 2.6
2019-Aug-14 19:30N 59°07' E 010°14'0 0.3
2019-Aug-14 19:00N 59°08' E 010°14'510.8
2019-Aug-14 18:30N 59°02' E 010°15'815.6
2019-Aug-14 18:00N 59°01' E 010°30'815.3
2019-Aug-14 17:31N 59°02' E 010°45'815.7
2019-Aug-14 17:00N 58°59' E 010°60'612.7
2019-Aug-14 16:30N 58°56' E 011°10'0 0.2
2019-Aug-14 16:00N 58°56' E 011°10'5 9.0
2019-Aug-14 15:30N 58°58' E 011°02'714.6
2019-Aug-14 15:00N 59°01' E 010°50'714.3
2019-Aug-14 14:30N 59°01' E 010°36'714.6
2019-Aug-14 14:01N 59°01' E 010°22'612.8
2019-Aug-14 13:30N 59°06' E 010°14'2 3.3
2019-Aug-14 13:00N 59°08' E 010°14'0 0.0
2019-Aug-14 12:30N 59°08' E 010°14'611.0
2019-Aug-14 12:00N 59°02' E 010°16'714.7
2019-Aug-14 11:30N 59°00' E 010°30'714.6
2019-Aug-14 11:00N 59°02' E 010°44'714.8
2019-Aug-14 10:30N 58°60' E 010°57'714.3
2019-Aug-14 10:00N 58°56' E 011°09'0 0.8
2019-Aug-14 09:30N 58°56' E 011°10'0 0.3
2019-Aug-14 09:00N 58°56' E 011°10'713.0
2019-Aug-14 08:30N 58°59' E 010°59'714.4
2019-Aug-14 08:00N 59°02' E 010°46'714.7
2019-Aug-14 07:30N 59°01' E 010°32'714.4
2019-Aug-14 07:00N 59°01' E 010°18'612.8
2019-Aug-14 06:30N 59°07' E 010°14'0 0.8
2019-Aug-14 06:00N 59°08' E 010°14'1 1.1
2019-Aug-14 05:30N 59°07' E 010°14'1 1.7
2019-Aug-14 05:00N 59°06' E 010°14'0 0.0
2019-Aug-14 04:30N 59°06' E 010°14'0 0.0
2019-Aug-14 03:58N 59°06' E 010°14'0 0.0
2019-Aug-14 03:28N 59°06' E 010°14'0 0.0
2019-Aug-14 02:58N 59°06' E 010°14'0 0.0
2019-Aug-14 02:29N 59°06' E 010°14'0 0.0
2019-Aug-14 01:59N 59°06' E 010°14'0 0.0
2019-Aug-14 01:29N 59°06' E 010°14'0 0.0
2019-Aug-14 01:00N 59°06' E 010°14'0 0.0
2019-Aug-14 00:30N 59°06' E 010°14'0 0.0
2019-Aug-14 00:00N 59°06' E 010°14'0 0.0
2019-Aug-13 23:28N 59°06' E 010°14'0 0.0
2019-Aug-13 22:58N 59°06' E 010°14'0 0.0
2019-Aug-13 22:28N 59°06' E 010°14'0 0.0
2019-Aug-13 21:59N 59°06' E 010°14'0 0.0
2019-Aug-13 21:29N 59°06' E 010°14'0 0.0
2019-Aug-13 20:59N 59°06' E 010°14'0 0.0
2019-Aug-13 20:30N 59°06' E 010°14'0 0.0
2019-Aug-13 20:00N 59°06' E 010°14'1 1.2
2019-Aug-13 19:31N 59°07' E 010°14'1 1.7
2019-Aug-13 19:00N 59°08' E 010°14'4 8.4
2019-Aug-13 18:30N 59°03' E 010°15'714.3
2019-Aug-13 18:00N 59°01' E 010°28'815.6
2019-Aug-13 17:31N 59°02' E 010°43'815.7
2019-Aug-13 17:00N 58°60' E 010°58'714.4
2019-Aug-13 16:30N 58°56' E 011°10'0 0.3
2019-Aug-13 16:00N 58°56' E 011°10'5 9.7
2019-Aug-13 15:30N 58°58' E 011°02'714.3
2019-Aug-13 15:00N 59°01' E 010°49'714.4
2019-Aug-13 14:30N 59°00' E 010°36'714.6
2019-Aug-13 14:01N 59°01' E 010°22'713.1
2019-Aug-13 13:30N 59°06' E 010°14'2 3.3
2019-Aug-13 13:01N 59°08' E 010°14'0 0.0
2019-Aug-13 12:31N 59°08' E 010°14'611.0
2019-Aug-13 12:00N 59°02' E 010°16'713.5
2019-Aug-13 11:30N 59°00' E 010°28'714.3
2019-Aug-13 11:00N 59°01' E 010°42'714.3
2019-Aug-13 10:30N 59°00' E 010°56'815.7
2019-Aug-13 10:00N 58°56' E 011°08'1 2.0
2019-Aug-13 09:30N 58°56' E 011°10'0 0.3
2019-Aug-13 09:00N 58°56' E 011°10'713.3
2019-Aug-13 08:30N 58°59' E 010°59'714.4
2019-Aug-13 08:00N 59°02' E 010°46'715.0
2019-Aug-13 07:31N 59°01' E 010°31'714.7
2019-Aug-13 07:00N 59°01' E 010°17'612.4
2019-Aug-13 06:30N 59°07' E 010°14'0 0.5
2019-Aug-13 06:00N 59°08' E 010°14'0 0.5
2019-Aug-13 05:30N 59°07' E 010°14'1 2.3
2019-Aug-13 05:00N 59°06' E 010°14'0 0.0
2019-Aug-13 04:30N 59°06' E 010°14'0 0.0
2019-Aug-13 04:00N 59°06' E 010°14'0 0.0
2019-Aug-13 03:30N 59°06' E 010°14'0 0.0
2019-Aug-13 03:00N 59°06' E 010°14'0 0.0
2019-Aug-13 02:30N 59°06' E 010°14'0 0.0
2019-Aug-13 01:30N 59°06' E 010°14'0 0.0
2019-Aug-13 01:00N 59°06' E 010°14'0 0.0
2019-Aug-13 00:30N 59°06' E 010°14'0 0.0
2019-Aug-13 00:00N 59°06' E 010°14'0 0.0
2019-Aug-12 23:31N 59°06' E 010°14'0 0.0
2019-Aug-12 23:00N 59°06' E 010°14'0 0.0
2019-Aug-12 22:30N 59°06' E 010°14'0 0.0
2019-Aug-12 22:00N 59°06' E 010°14'0 0.0
2019-Aug-12 21:31N 59°06' E 010°14'0 0.0
2019-Aug-12 21:00N 59°06' E 010°14'0 0.0
2019-Aug-12 20:30N 59°06' E 010°14'0 0.0
2019-Aug-12 20:00N 59°06' E 010°14'0 0.0
2019-Aug-12 19:30N 59°06' E 010°14'1 2.8
2019-Aug-12 19:00N 59°08' E 010°14'4 8.8
2019-Aug-12 18:30N 59°03' E 010°15'713.9
2019-Aug-12 18:00N 59°00' E 010°27'815.0
2019-Aug-12 17:30N 59°01' E 010°42'815.2
2019-Aug-12 17:00N 59°00' E 010°56'815.7
2019-Aug-12 16:30N 58°56' E 011°09'1 1.5
2019-Aug-12 16:00N 58°56' E 011°10'510.1
2019-Aug-12 15:30N 58°58' E 011°02'815.1
2019-Aug-12 15:00N 59°02' E 010°48'815.4
2019-Aug-12 14:30N 58°59' E 010°34'714.9
2019-Aug-12 14:00N 59°00' E 010°20'713.7
2019-Aug-12 13:30N 59°06' E 010°14'1 2.2
2019-Aug-12 13:00N 59°08' E 010°14'0 0.0
2019-Aug-12 12:30N 59°08' E 010°14'611.1
2019-Aug-12 12:00N 59°02' E 010°16'714.1
2019-Aug-12 11:31N 58°60' E 010°28'714.3
2019-Aug-12 11:00N 59°02' E 010°42'714.6
2019-Aug-12 10:30N 59°00' E 010°56'815.5
2019-Aug-12 10:00N 58°56' E 011°08'  
Track history (hours):
 
Tides and Currents Weather Stations Pressure Air Temp Water Temp Dewpoint Dewpoint Depression Visibility Wind Speed Wind Dir Waves Ship Positions

DucheSS Of Scandinavia

Operator: DFDS A/S

Last reported at 2019-Aug-22 09:31 UTC. Time now 2019-Aug-22 09:56 UTC.
Position N 58°56' E 011°10'.

Length 134 m; draft 5.4 m.

Type: Passenger vessel. MMSI: 219002929.

Date/timePositionNaut miles runAvg speedWind from/ knotsBaromVisibWave heightAir tempDewpointWater temp
2019-Aug-22 09:31N 58°56' E 011°10'0 0.4
2019-Aug-22 09:00N 58°56' E 011°10'612.5
2019-Aug-22 08:30N 58°59' E 010°60'815.2
2019-Aug-22 08:00N 59°02' E 010°46'815.4
2019-Aug-22 07:31N 59°00' E 010°31'714.8
2019-Aug-22 07:00N 59°02' E 010°17'612.1
2019-Aug-22 06:30N 59°07' E 010°14'0 0.4
2019-Aug-22 06:00N 59°08' E 010°14'0 0.7
2019-Aug-22 05:30N 59°07' E 010°14'1 2.1
2019-Aug-22 05:00N 59°06' E 010°14'0 0.0
2019-Aug-22 04:29N 59°06' E 010°14'0 0.0
2019-Aug-22 03:59N 59°06' E 010°14'0 0.0
2019-Aug-22 03:30N 59°06' E 010°14'0 0.0
2019-Aug-22 03:00N 59°06' E 010°14'0 0.0
2019-Aug-22 02:31N 59°06' E 010°14'0 0.0
2019-Aug-22 01:58N 59°06' E 010°14'0 0.0
2019-Aug-22 01:28N 59°06' E 010°14'0 0.0
2019-Aug-22 00:59N 59°06' E 010°14'0 0.0
2019-Aug-22 00:29N 59°06' E 010°14'0 0.0
2019-Aug-21 23:59N 59°06' E 010°14'0 0.0
2019-Aug-21 23:30N 59°06' E 010°14'0 0.0
2019-Aug-21 23:00N 59°06' E 010°14'0 0.0
2019-Aug-21 22:30N 59°06' E 010°14'0 0.0
2019-Aug-21 22:01N 59°06' E 010°14'0 0.0
2019-Aug-21 21:28N 59°06' E 010°14'0 0.0
2019-Aug-21 20:58N 59°06' E 010°14'0 0.0
2019-Aug-21 20:29N 59°06' E 010°14'0 0.0
2019-Aug-21 19:59N 59°06' E 010°14'1 2.6
2019-Aug-21 19:30N 59°07' E 010°14'0 0.5
2019-Aug-21 19:00N 59°07' E 010°14'612.5
2019-Aug-21 18:30N 59°01' E 010°18'815.4
2019-Aug-21 18:00N 59°01' E 010°33'815.2
2019-Aug-21 17:30N 59°02' E 010°47'715.0
2019-Aug-21 17:00N 58°59' E 011°01'611.2
2019-Aug-21 16:30N 58°56' E 011°10'0 0.0
2019-Aug-21 16:01N 58°56' E 011°10'5 9.0
2019-Aug-21 15:30N 58°58' E 011°02'714.7
2019-Aug-21 15:00N 59°01' E 010°50'714.8
2019-Aug-21 14:30N 59°01' E 010°35'714.9
2019-Aug-21 14:00N 59°01' E 010°21'612.5
2019-Aug-21 13:30N 59°06' E 010°14'1 2.8
2019-Aug-21 13:00N 59°08' E 010°14'0 0.2
2019-Aug-21 12:30N 59°07' E 010°14'611.2
2019-Aug-21 12:01N 59°02' E 010°16'713.7
2019-Aug-21 11:30N 59°01' E 010°29'714.0
2019-Aug-21 11:00N 59°02' E 010°42'815.1
2019-Aug-21 10:30N 59°00' E 010°57'815.4
2019-Aug-21 10:01N 58°56' E 011°09'1 1.3
2019-Aug-21 09:31N 58°56' E 011°10'0 0.5
2019-Aug-21 09:00N 58°56' E 011°10'713.2
2019-Aug-21 08:30N 58°59' E 010°59'714.6
2019-Aug-21 08:00N 59°02' E 010°45'714.9
2019-Aug-21 07:30N 59°00' E 010°31'714.8
2019-Aug-21 07:00N 59°01' E 010°17'612.6
2019-Aug-21 06:30N 59°07' E 010°14'0 0.5
2019-Aug-21 06:01N 59°08' E 010°14'0 0.4
2019-Aug-21 05:30N 59°07' E 010°14'1 2.5
2019-Aug-21 05:00N 59°06' E 010°14'0 0.0
2019-Aug-21 04:29N 59°06' E 010°14'0 0.0
2019-Aug-21 03:59N 59°06' E 010°14'0 0.0
2019-Aug-21 03:30N 59°06' E 010°14'0 0.0
2019-Aug-21 03:00N 59°06' E 010°14'0 0.0
2019-Aug-21 02:30N 59°06' E 010°14'0 0.0
2019-Aug-21 01:58N 59°06' E 010°14'0 0.0
2019-Aug-21 01:28N 59°06' E 010°14'0 0.0
2019-Aug-21 00:58N 59°06' E 010°14'0 0.0
2019-Aug-21 00:29N 59°06' E 010°14'0 0.0
2019-Aug-20 23:59N 59°06' E 010°14'0 0.0
2019-Aug-20 23:29N 59°06' E 010°14'0 0.0
2019-Aug-20 23:00N 59°06' E 010°14'0 0.0
2019-Aug-20 22:30N 59°06' E 010°14'0 0.0
2019-Aug-20 22:00N 59°06' E 010°14'0 0.0
2019-Aug-20 21:28N 59°06' E 010°14'0 0.0
2019-Aug-20 20:58N 59°06' E 010°14'0 0.0
2019-Aug-20 20:28N 59°06' E 010°14'0 0.0
2019-Aug-20 19:59N 59°06' E 010°14'1 2.1
2019-Aug-20 19:30N 59°07' E 010°14'0 0.9
2019-Aug-20 19:00N 59°08' E 010°14'510.9
2019-Aug-20 18:30N 59°02' E 010°16'815.2
2019-Aug-20 18:01N 59°01' E 010°30'815.4
2019-Aug-20 17:31N 59°01' E 010°45'815.2
2019-Aug-20 17:00N 58°60' E 010°59'713.1
2019-Aug-20 16:30N 58°56' E 011°10'0 0.3
2019-Aug-20 16:00N 58°56' E 011°10'5 8.9
2019-Aug-20 15:30N 58°58' E 011°02'714.8
2019-Aug-20 15:00N 59°01' E 010°50'714.4
2019-Aug-20 14:30N 59°01' E 010°36'714.8
2019-Aug-20 14:00N 59°01' E 010°21'612.6
2019-Aug-20 13:30N 59°06' E 010°14'2 3.1
2019-Aug-20 13:00N 59°08' E 010°14'0 0.0
2019-Aug-20 12:30N 59°08' E 010°14'510.5
2019-Aug-20 12:00N 59°02' E 010°16'713.3
2019-Aug-20 11:30N 59°01' E 010°28'714.0
2019-Aug-20 11:01N 59°02' E 010°41'715.0
2019-Aug-20 10:30N 59°00' E 010°56'815.5
2019-Aug-20 10:00N 58°56' E 011°08'1 2.2
2019-Aug-20 09:30N 58°56' E 011°10'0 0.5
2019-Aug-20 09:00N 58°56' E 011°10'713.5
2019-Aug-20 08:30N 58°60' E 010°59'815.3
2019-Aug-20 08:00N 59°02' E 010°45'815.9
2019-Aug-20 07:30N 59°00' E 010°29'714.8
2019-Aug-20 07:00N 59°02' E 010°15'510.7
2019-Aug-20 06:30N 59°08' E 010°14'0 0.1
2019-Aug-20 06:00N 59°08' E 010°14'0 0.2
2019-Aug-20 05:30N 59°07' E 010°14'1 2.5
2019-Aug-20 05:00N 59°06' E 010°14'0 0.0
2019-Aug-20 04:28N 59°06' E 010°14'0 0.0
2019-Aug-20 03:58N 59°06' E 010°14'0 0.0
2019-Aug-20 03:29N 59°06' E 010°14'0 0.0
2019-Aug-20 02:59N 59°06' E 010°14'0 0.0
2019-Aug-20 02:29N 59°06' E 010°14'0 0.0
2019-Aug-20 02:00N 59°06' E 010°14'0 0.0
2019-Aug-20 01:30N 59°06' E 010°14'0 0.0
2019-Aug-20 01:00N 59°06' E 010°14'0 0.0
2019-Aug-20 00:28N 59°06' E 010°14'0 0.0
2019-Aug-19 23:58N 59°06' E 010°14'0 0.0
2019-Aug-19 23:28N 59°06' E 010°14'0 0.0
2019-Aug-19 22:59N 59°06' E 010°14'0 0.0
2019-Aug-19 22:29N 59°06' E 010°14'0 0.0
2019-Aug-19 21:59N 59°06' E 010°14'0 0.0
2019-Aug-19 21:30N 59°06' E 010°14'0 0.0
2019-Aug-19 20:57N 59°06' E 010°14'0 0.0
2019-Aug-19 20:30N 59°06' E 010°14'0 0.0
2019-Aug-19 20:00N 59°06' E 010°14'1 2.7
2019-Aug-19 19:30N 59°08' E 010°14'1 1.7
2019-Aug-19 19:00N 59°07' E 010°14'713.1
2019-Aug-19 18:31N 59°01' E 010°19'714.0
2019-Aug-19 18:00N 59°01' E 010°33'713.4
2019-Aug-19 17:30N 59°02' E 010°45'815.5
2019-Aug-19 17:00N 58°59' E 010°60'612.6
2019-Aug-19 16:30N 58°56' E 011°10'0 0.1
2019-Aug-19 16:00N 58°56' E 011°10'4 9.1
2019-Aug-19 15:30N 58°58' E 011°02'815.5
2019-Aug-19 15:01N 59°01' E 010°49'815.6
2019-Aug-19 14:30N 59°01' E 010°34'815.4
2019-Aug-19 14:00N 59°01' E 010°19'612.5
2019-Aug-19 13:30N 59°07' E 010°14'1 1.6
2019-Aug-19 13:00N 59°08' E 010°14'0 0.7
2019-Aug-19 12:30N 59°07' E 010°14'611.8
2019-Aug-19 12:01N 59°02' E 010°17'713.9
2019-Aug-19 11:30N 59°00' E 010°30'713.7
2019-Aug-19 11:01N 59°02' E 010°43'714.7
2019-Aug-19 10:30N 59°00' E 010°57'714.7
2019-Aug-19 10:00N 58°56' E 011°08'1 1.8
2019-Aug-19 09:30N 58°56' E 011°10'0 0.1
2019-Aug-19 09:00N 58°56' E 011°10'510.7
2019-Aug-19 08:30N 58°59' E 011°01'816.0
2019-Aug-19 08:00N 59°02' E 010°47'816.1
2019-Aug-19 07:30N 59°00' E 010°32'815.5
2019-Aug-19 07:00N 59°02' E 010°17'612.1
2019-Aug-19 06:30N 59°07' E 010°14'0 0.4
2019-Aug-19 06:01N 59°08' E 010°14'0 0.9
2019-Aug-19 05:30N 59°07' E 010°14'1 1.9
2019-Aug-19 05:01N 59°06' E 010°14'0 0.0
2019-Aug-19 04:28N 59°06' E 010°14'0 0.0
2019-Aug-19 03:58N 59°06' E 010°14'0 0.0
2019-Aug-19 03:28N 59°06' E 010°14'0 0.0
2019-Aug-19 02:59N 59°06' E 010°14'0 0.0
2019-Aug-19 02:29N 59°06' E 010°14'0 0.0
2019-Aug-19 01:59N 59°06' E 010°14'0 0.0
2019-Aug-19 01:30N 59°06' E 010°14'0 0.0
2019-Aug-19 01:00N 59°06' E 010°14'0 0.0
2019-Aug-19 00:30N 59°06' E 010°14'0 0.0
2019-Aug-18 23:58N 59°06' E 010°14'0 0.0
2019-Aug-18 23:28N 59°06' E 010°14'0 0.0
2019-Aug-18 22:58N 59°06' E 010°14'0 0.0
2019-Aug-18 22:29N 59°06' E 010°14'0 0.0
2019-Aug-18 21:59N 59°06' E 010°14'0 0.0
2019-Aug-18 21:29N 59°06' E 010°14'0 0.0
2019-Aug-18 21:00N 59°06' E 010°14'0 0.0
2019-Aug-18 20:30N 59°06' E 010°14'0 0.0
2019-Aug-18 20:00N 59°06' E 010°14'1 1.8
2019-Aug-18 19:30N 59°07' E 010°14'0 1.0
2019-Aug-18 19:00N 59°08' E 010°14'611.4
2019-Aug-18 18:30N 59°02' E 010°16'816.0
2019-Aug-18 18:01N 59°01' E 010°31'815.5
2019-Aug-18 17:31N 59°02' E 010°46'815.1
2019-Aug-18 17:00N 58°59' E 011°00'612.3
2019-Aug-18 16:30N 58°56' E 011°10'0 0.1
2019-Aug-18 16:00N 58°56' E 011°10'5 9.2
2019-Aug-18 15:30N 58°58' E 011°02'714.6
2019-Aug-18 15:00N 59°01' E 010°50'815.1
2019-Aug-18 14:30N 59°01' E 010°35'714.9
2019-Aug-18 14:00N 59°01' E 010°20'612.7
2019-Aug-18 13:30N 59°06' E 010°14'1 2.5
2019-Aug-18 13:00N 59°08' E 010°14'0 0.3
2019-Aug-18 12:30N 59°07' E 010°14'611.4
2019-Aug-18 12:00N 59°02' E 010°16'714.7
2019-Aug-18 11:31N 59°01' E 010°30'714.4
2019-Aug-18 11:00N 59°02' E 010°44'714.5
2019-Aug-18 10:30N 59°00' E 010°57'714.5
2019-Aug-18 10:00N 58°56' E 011°09'1 1.4
2019-Aug-18 09:30N 58°56' E 011°10'0 0.4
2019-Aug-18 09:00N 58°56' E 011°10'713.2
2019-Aug-18 08:30N 58°59' E 010°59'715.0
2019-Aug-18 08:00N 59°02' E 010°45'1515.0
2019-Aug-18 07:00N 59°02' E 010°16'611.5
2019-Aug-18 06:30N 59°07' E 010°14'0 0.3
2019-Aug-18 06:00N 59°08' E 010°14'0 0.8
2019-Aug-18 05:30N 59°07' E 010°14'1 2.0
2019-Aug-18 05:00N 59°06' E 010°14'0 0.0
2019-Aug-18 04:29N 59°06' E 010°14'0 0.0
2019-Aug-18 04:00N 59°06' E 010°14'0 0.0
2019-Aug-18 03:30N 59°06' E 010°14'0 0.0
2019-Aug-18 03:00N 59°06' E 010°14'0 0.0
2019-Aug-18 02:28N 59°06' E 010°14'0 0.0
2019-Aug-18 01:58N 59°06' E 010°14'0 0.0
2019-Aug-18 01:28N 59°06' E 010°14'0 0.0
2019-Aug-18 00:59N 59°06' E 010°14'0 0.0
2019-Aug-18 00:29N 59°06' E 010°14'0 0.0
2019-Aug-17 23:59N 59°06' E 010°14'0 0.0
2019-Aug-17 23:30N 59°06' E 010°14'0 0.0
2019-Aug-17 23:00N 59°06' E 010°14'0 0.0
2019-Aug-17 22:30N 59°06' E 010°14'0 0.0
2019-Aug-17 21:58N 59°06' E 010°14'0 0.0
2019-Aug-17 21:28N 59°06' E 010°14'0 0.0
2019-Aug-17 20:58N 59°06' E 010°14'0 0.0
2019-Aug-17 20:29N 59°06' E 010°14'0 0.0
2019-Aug-17 19:59N 59°06' E 010°14'1 1.8
2019-Aug-17 19:30N 59°07' E 010°14'0 0.6
2019-Aug-17 19:00N 59°07' E 010°14'612.5
2019-Aug-17 18:30N 59°01' E 010°17'1413.9
2019-Aug-17 17:30N 59°01' E 010°44'815.8
2019-Aug-17 17:00N 58°60' E 010°59'713.1
2019-Aug-17 16:30N 58°56' E 011°10'0 0.3
2019-Aug-17 16:00N 58°56' E 011°10'5 9.4
2019-Aug-17 15:30N 58°58' E 011°02'815.2
2019-Aug-17 15:00N 59°02' E 010°49'714.9
2019-Aug-17 14:30N 58°59' E 010°35'815.2
2019-Aug-17 14:00N 59°00' E 010°20'713.7
2019-Aug-17 13:30N 59°06' E 010°14'1 2.6
2019-Aug-17 13:00N 59°08' E 010°14'0 0.5
2019-Aug-17 12:30N 59°07' E 010°14'612.2
2019-Aug-17 12:00N 59°01' E 010°17'714.5
2019-Aug-17 11:31N 58°59' E 010°30'612.9
2019-Aug-17 11:00N 59°01' E 010°41'815.4
2019-Aug-17 10:30N 59°01' E 010°56'816.0
2019-Aug-17 10:00N 58°56' E 011°09'1 1.7
2019-Aug-17 09:31N 58°56' E 011°10'1 1.0
2019-Aug-17 09:00N 58°56' E 011°09'713.7
2019-Aug-17 08:30N 58°60' E 010°58'714.9
2019-Aug-17 08:00N 59°02' E 010°44'816.1
2019-Aug-17 07:30N 58°59' E 010°30'715.1
2019-Aug-17 07:01N 59°02' E 010°16'611.7
2019-Aug-17 06:30N 59°07' E 010°14'0 0.3
2019-Aug-17 06:01N 59°08' E 010°14'1 1.4
2019-Aug-17 05:30N 59°07' E 010°14'1 1.4
2019-Aug-17 05:00N 59°06' E 010°14'0 0.0
2019-Aug-17 04:28N 59°06' E 010°14'0 0.0
2019-Aug-17 03:58N 59°06' E 010°14'0 0.0
2019-Aug-17 03:28N 59°06' E 010°14'0 0.0
2019-Aug-17 02:59N 59°06' E 010°14'0 0.0
2019-Aug-17 02:29N 59°06' E 010°14'0 0.0
2019-Aug-17 01:59N 59°06' E 010°14'0 0.0
2019-Aug-17 01:30N 59°06' E 010°14'0 0.0
2019-Aug-17 01:00N 59°06' E 010°14'0 0.0
2019-Aug-17 00:30N 59°06' E 010°14'0 0.0
2019-Aug-16 23:58N 59°06' E 010°14'0 0.0
2019-Aug-16 23:28N 59°06' E 010°14'0 0.0
2019-Aug-16 22:58N 59°06' E 010°14'0 0.0
2019-Aug-16 22:29N 59°06' E 010°14'0 0.0
2019-Aug-16 21:59N 59°06' E 010°14'0 0.0
2019-Aug-16 21:29N 59°06' E 010°14'0 0.0
2019-Aug-16 21:00N 59°06' E 010°14'0 0.0
2019-Aug-16 20:30N 59°06' E 010°14'0 0.0
2019-Aug-16 20:00N 59°06' E 010°14'1 2.8
2019-Aug-16 19:30N 59°08' E 010°14'1 1.4
2019-Aug-16 19:00N 59°07' E 010°14'612.7
2019-Aug-16 18:31N 59°01' E 010°19'815.6
2019-Aug-16 18:01N 59°01' E 010°35'815.7
2019-Aug-16 17:31N 59°01' E 010°50'816.1
2019-Aug-16 17:01N 58°58' E 011°03'4 7.6
2019-Aug-16 16:30N 58°56' E 011°10'0 0.0
2019-Aug-16 16:01N 58°56' E 011°10'5 9.6
2019-Aug-16 15:31N 58°58' E 011°02'815.1
2019-Aug-16 15:00N 59°01' E 010°49'715.0
2019-Aug-16 14:30N 59°01' E 010°34'815.2
2019-Aug-16 14:00N 59°01' E 010°19'612.4
2019-Aug-16 13:30N 59°07' E 010°14'1 2.0
2019-Aug-16 13:00N 59°08' E 010°14'0 0.1
2019-Aug-16 12:31N 59°08' E 010°14'611.3
2019-Aug-16 12:00N 59°02' E 010°16'714.3
2019-Aug-16 11:31N 59°01' E 010°29'714.4
2019-Aug-16 11:01N 59°02' E 010°43'714.3
2019-Aug-16 10:31N 59°00' E 010°57'714.8
2019-Aug-16 10:00N 58°56' E 011°08'1 1.7
2019-Aug-16 09:30N 58°56' E 011°10'0 0.0
2019-Aug-16 09:00N 58°56' E 011°10'611.2
2019-Aug-16 08:30N 58°59' E 011°01'815.7
2019-Aug-16 08:00N 59°02' E 010°47'816.3
2019-Aug-16 07:30N 59°00' E 010°31'815.9
2019-Aug-16 07:00N 59°02' E 010°16'611.4
2019-Aug-16 06:30N 59°08' E 010°14'0 0.1
2019-Aug-16 06:01N 59°08' E 010°14'1 1.1
2019-Aug-16 05:30N 59°07' E 010°14'1 1.7
2019-Aug-16 05:00N 59°06' E 010°14'0 0.0
2019-Aug-16 04:29N 59°06' E 010°14'0 0.0
2019-Aug-16 04:00N 59°06' E 010°14'0 0.0
2019-Aug-16 03:30N 59°06' E 010°14'0 0.0
2019-Aug-16 03:00N 59°06' E 010°14'0 0.0
2019-Aug-16 02:28N 59°06' E 010°14'0 0.0
2019-Aug-16 01:58N 59°06' E 010°14'0 0.0
2019-Aug-16 01:28N 59°06' E 010°14'0 0.0
2019-Aug-16 00:59N 59°06' E 010°14'0 0.0
2019-Aug-16 00:29N 59°06' E 010°14'0 0.0
2019-Aug-15 23:59N 59°06' E 010°14'0 0.0
2019-Aug-15 23:30N 59°06' E 010°14'0 0.0
2019-Aug-15 23:00N 59°06' E 010°14'0 0.0
2019-Aug-15 22:30N 59°06' E 010°14'0 0.0
2019-Aug-15 21:58N 59°06' E 010°14'0 0.0
2019-Aug-15 21:28N 59°06' E 010°14'0 0.0
2019-Aug-15 20:58N 59°06' E 010°14'0 0.0
2019-Aug-15 20:29N 59°06' E 010°14'0 0.0
2019-Aug-15 19:59N 59°06' E 010°14'0 0.3
2019-Aug-15 19:30N 59°06' E 010°14'1 2.6
2019-Aug-15 19:00N 59°08' E 010°14'4 8.7
2019-Aug-15 18:30N 59°03' E 010°15'714.8
2019-Aug-15 18:00N 59°01' E 010°28'816.2
2019-Aug-15 17:30N 59°01' E 010°44'816.1
2019-Aug-15 17:00N 58°59' E 010°59'613.1
2019-Aug-15 16:31N 58°56' E 011°10'0 0.2
2019-Aug-15 16:00N 58°56' E 011°10'5 9.5
2019-Aug-15 15:30N 58°58' E 011°02'714.4
2019-Aug-15 15:00N 59°01' E 010°50'714.7
2019-Aug-15 14:30N 59°01' E 010°35'714.8
2019-Aug-15 14:00N 59°01' E 010°21'612.1
2019-Aug-15 13:30N 59°06' E 010°14'2 3.3
2019-Aug-15 13:00N 59°08' E 010°14'0 0.1
2019-Aug-15 12:30N 59°08' E 010°14'611.2
2019-Aug-15 12:00N 59°02' E 010°16'714.4
2019-Aug-15 11:31N 59°01' E 010°29'714.5
2019-Aug-15 11:00N 59°02' E 010°43'714.3
2019-Aug-15 10:30N 59°00' E 010°57'714.6
2019-Aug-15 10:00N 58°56' E 011°08'1 1.9
2019-Aug-15 09:30N 58°56' E 011°10'0 0.6
2019-Aug-15 09:00N 58°56' E 011°10'713.0
2019-Aug-15 08:30N 58°60' E 010°59'714.6
2019-Aug-15 08:01N 59°02' E 010°46'714.9
2019-Aug-15 07:30N 59°01' E 010°31'714.7
2019-Aug-15 07:00N 59°01' E 010°17'612.2
2019-Aug-15 06:30N 59°07' E 010°14'0 0.5
2019-Aug-15 06:00N 59°08' E 010°14'0 0.8
2019-Aug-15 05:30N 59°07' E 010°14'1 2.1
2019-Aug-15 05:00N 59°06' E 010°14'0 0.0
2019-Aug-15 04:29N 59°06' E 010°14'0 0.0
2019-Aug-15 04:00N 59°06' E 010°14'0 0.0
2019-Aug-15 03:30N 59°06' E 010°14'0 0.0
2019-Aug-15 03:00N 59°06' E 010°14'0 0.0
2019-Aug-15 02:28N 59°06' E 010°14'0 0.0
2019-Aug-15 01:58N 59°06' E 010°14'0 0.0
2019-Aug-15 01:28N 59°06' E 010°14'0 0.0
2019-Aug-15 00:59N 59°06' E 010°14'0 0.0
2019-Aug-15 00:29N 59°06' E 010°14'0 0.0
2019-Aug-14 23:59N 59°06' E 010°14'0 0.0
2019-Aug-14 23:30N 59°06' E 010°14'0 0.0
2019-Aug-14 23:00N 59°06' E 010°14'0 0.0
2019-Aug-14 22:30N 59°06' E 010°14'0 0.0
2019-Aug-14 21:58N 59°06' E 010°14'0 0.0
2019-Aug-14 21:28N 59°06' E 010°14'0 0.0
2019-Aug-14 20:58N 59°06' E 010°14'0 0.0
2019-Aug-14 20:29N 59°06' E 010°14'0 0.0
2019-Aug-14 19:59N 59°06' E 010°14'1 2.6
2019-Aug-14 19:30N 59°07' E 010°14'0 0.3
2019-Aug-14 19:00N 59°08' E 010°14'510.8
2019-Aug-14 18:30N 59°02' E 010°15'815.6
2019-Aug-14 18:00N 59°01' E 010°30'815.3
2019-Aug-14 17:31N 59°02' E 010°45'815.7
2019-Aug-14 17:00N 58°59' E 010°60'612.7
2019-Aug-14 16:30N 58°56' E 011°10'0 0.2
2019-Aug-14 16:00N 58°56' E 011°10'5 9.0
2019-Aug-14 15:30N 58°58' E 011°02'714.6
2019-Aug-14 15:00N 59°01' E 010°50'714.3
2019-Aug-14 14:30N 59°01' E 010°36'714.6
2019-Aug-14 14:01N 59°01' E 010°22'612.8
2019-Aug-14 13:30N 59°06' E 010°14'2 3.3
2019-Aug-14 13:00N 59°08' E 010°14'0 0.0
2019-Aug-14 12:30N 59°08' E 010°14'611.0
2019-Aug-14 12:00N 59°02' E 010°16'714.7
2019-Aug-14 11:30N 59°00' E 010°30'714.6
2019-Aug-14 11:00N 59°02' E 010°44'714.8
2019-Aug-14 10:30N 58°60' E 010°57'714.3
2019-Aug-14 10:00N 58°56' E 011°09'0 0.8
2019-Aug-14 09:30N 58°56' E 011°10'0 0.3
2019-Aug-14 09:00N 58°56' E 011°10'713.0
2019-Aug-14 08:30N 58°59' E 010°59'714.4
2019-Aug-14 08:00N 59°02' E 010°46'714.7
2019-Aug-14 07:30N 59°01' E 010°32'714.4
2019-Aug-14 07:00N 59°01' E 010°18'612.8
2019-Aug-14 06:30N 59°07' E 010°14'0 0.8
2019-Aug-14 06:00N 59°08' E 010°14'1 1.1
2019-Aug-14 05:30N 59°07' E 010°14'1 1.7
2019-Aug-14 05:00N 59°06' E 010°14'0 0.0
2019-Aug-14 04:30N 59°06' E 010°14'0 0.0
2019-Aug-14 03:58N 59°06' E 010°14'0 0.0
2019-Aug-14 03:28N 59°06' E 010°14'0 0.0
2019-Aug-14 02:58N 59°06' E 010°14'0 0.0
2019-Aug-14 02:29N 59°06' E 010°14'0 0.0
2019-Aug-14 01:59N 59°06' E 010°14'0 0.0
2019-Aug-14 01:29N 59°06' E 010°14'0 0.0
2019-Aug-14 01:00N 59°06' E 010°14'0 0.0
2019-Aug-14 00:30N 59°06' E 010°14'0 0.0
2019-Aug-14 00:00N 59°06' E 010°14'0 0.0
2019-Aug-13 23:28N 59°06' E 010°14'0 0.0
2019-Aug-13 22:58N 59°06' E 010°14'0 0.0
2019-Aug-13 22:28N 59°06' E 010°14'0 0.0
2019-Aug-13 21:59N 59°06' E 010°14'0 0.0
2019-Aug-13 21:29N 59°06' E 010°14'0 0.0
2019-Aug-13 20:59N 59°06' E 010°14'0 0.0
2019-Aug-13 20:30N 59°06' E 010°14'0 0.0
2019-Aug-13 20:00N 59°06' E 010°14'1 1.2
2019-Aug-13 19:31N 59°07' E 010°14'1 1.7
2019-Aug-13 19:00N 59°08' E 010°14'4 8.4
2019-Aug-13 18:30N 59°03' E 010°15'714.3
2019-Aug-13 18:00N 59°01' E 010°28'815.6
2019-Aug-13 17:31N 59°02' E 010°43'815.7
2019-Aug-13 17:00N 58°60' E 010°58'714.4
2019-Aug-13 16:30N 58°56' E 011°10'0 0.3
2019-Aug-13 16:00N 58°56' E 011°10'5 9.7
2019-Aug-13 15:30N 58°58' E 011°02'714.3
2019-Aug-13 15:00N 59°01' E 010°49'714.4
2019-Aug-13 14:30N 59°00' E 010°36'714.6
2019-Aug-13 14:01N 59°01' E 010°22'713.1
2019-Aug-13 13:30N 59°06' E 010°14'2 3.3
2019-Aug-13 13:01N 59°08' E 010°14'0 0.0
2019-Aug-13 12:31N 59°08' E 010°14'611.0
2019-Aug-13 12:00N 59°02' E 010°16'713.5
2019-Aug-13 11:30N 59°00' E 010°28'714.3
2019-Aug-13 11:00N 59°01' E 010°42'714.3
2019-Aug-13 10:30N 59°00' E 010°56'815.7
2019-Aug-13 10:00N 58°56' E 011°08'1 2.0
2019-Aug-13 09:30N 58°56' E 011°10'0 0.3
2019-Aug-13 09:00N 58°56' E 011°10'713.3
2019-Aug-13 08:30N 58°59' E 010°59'714.4
2019-Aug-13 08:00N 59°02' E 010°46'715.0
2019-Aug-13 07:31N 59°01' E 010°31'714.7
2019-Aug-13 07:00N 59°01' E 010°17'612.4
2019-Aug-13 06:30N 59°07' E 010°14'0 0.5
2019-Aug-13 06:00N 59°08' E 010°14'0 0.5
2019-Aug-13 05:30N 59°07' E 010°14'1 2.3
2019-Aug-13 05:00N 59°06' E 010°14'0 0.0
2019-Aug-13 04:30N 59°06' E 010°14'0 0.0
2019-Aug-13 04:00N 59°06' E 010°14'0 0.0
2019-Aug-13 03:30N 59°06' E 010°14'0 0.0
2019-Aug-13 03:00N 59°06' E 010°14'0 0.0
2019-Aug-13 02:30N 59°06' E 010°14'0 0.0
2019-Aug-13 01:30N 59°06' E 010°14'0 0.0
2019-Aug-13 01:00N 59°06' E 010°14'0 0.0
2019-Aug-13 00:30N 59°06' E 010°14'0 0.0
2019-Aug-13 00:00N 59°06' E 010°14'0 0.0
2019-Aug-12 23:31N 59°06' E 010°14'0 0.0
2019-Aug-12 23:00N 59°06' E 010°14'0 0.0
2019-Aug-12 22:30N 59°06' E 010°14'0 0.0
2019-Aug-12 22:00N 59°06' E 010°14'0 0.0
2019-Aug-12 21:31N 59°06' E 010°14'0 0.0
2019-Aug-12 21:00N 59°06' E 010°14'0 0.0
2019-Aug-12 20:30N 59°06' E 010°14'0 0.0
2019-Aug-12 20:00N 59°06' E 010°14'0 0.0
2019-Aug-12 19:30N 59°06' E 010°14'1 2.8
2019-Aug-12 19:00N 59°08' E 010°14'4 8.8
2019-Aug-12 18:30N 59°03' E 010°15'713.9
2019-Aug-12 18:00N 59°00' E 010°27'815.0
2019-Aug-12 17:30N 59°01' E 010°42'815.2
2019-Aug-12 17:00N 59°00' E 010°56'815.7
2019-Aug-12 16:30N 58°56' E 011°09'1 1.5
2019-Aug-12 16:00N 58°56' E 011°10'510.1
2019-Aug-12 15:30N 58°58' E 011°02'815.1
2019-Aug-12 15:00N 59°02' E 010°48'815.4
2019-Aug-12 14:30N 58°59' E 010°34'714.9
2019-Aug-12 14:00N 59°00' E 010°20'713.7
2019-Aug-12 13:30N 59°06' E 010°14'1 2.2
2019-Aug-12 13:00N 59°08' E 010°14'0 0.0
2019-Aug-12 12:30N 59°08' E 010°14'611.1
2019-Aug-12 12:00N 59°02' E 010°16'714.1
2019-Aug-12 11:31N 58°60' E 010°28'714.3
2019-Aug-12 11:00N 59°02' E 010°42'714.6
2019-Aug-12 10:30N 59°00' E 010°56'815.5
2019-Aug-12 10:00N 58°56' E 011°08'  

Dump ship's entire track history